Airfield :
LOGIN :

Register | Disclaimer

   EN    FR    IT 

 










Legend :    VFR   Marginal VFR   IFR   Intensive IFR   Very Intensive IFR
Visi :
Ceiling :
>= 8 km
>= 3000ft
5 to 8 km
1000 to 3000 ft
1500m to 5 km
500 to 1000 ft
800 to 1500m
200 to 500 ft
< 800m
< 200 ft
Symbols :   Thunderstorms  Fog  Heavy snow  Heavy precipitations  Wind > 20 kt
SIGMETs :     Misc.  Thunderstorms  Icing  Turbulence  Mountain Waves  Volcanic Ashes






- Airport Elevation : 1708 ft
- IATA code : SJJ


LQSA - Sarajevo

CURRENT METAR :
  • 231130Z 29008KT 9999 FEW020 SCT030 BKN045 07/06 Q1026 NOSIG

EXPIRED METARs :
  • 231100Z 29007KT 9999 FEW023 SCT030 BKN045 07/07 Q1026 NOSIG
  • 231030Z 29009KT 9999 SCT023 BKN040 07/07 Q1026 NOSIG
  • 231000Z 30007KT 280V340 9999 -RA SCT020 BKN040 07/07 Q1026 RERA NOSIG
  • 230930Z 30011KT 8000 RA SCT020 BKN040 07/07 Q1026 NOSIG
  • 230900Z 30012KT 9999 -RA SCT020 BKN040 08/08 Q1025 NOSIG

TAF TAF LQSA
Valid from the 23 at 12:00 until the 24 at 12:00 UTC


231100Z 2312/2412 30007KT 9999 SCT010 BKN020 TX10/2412Z TN03/2403Z
PROB30
TEMPO 2312/2318 RA
PROB30 2323/2410 BKN010



MET'MAP, your aeronautical weather chart ! - Copyright ORBIFLY December 2007 - Disclaimer

ORBIFLY MET'MAP TEAM :

Programming & Development : Alexandra Zaïnal
Concept & original design : Baudouin d'Aumeries
Assistance for programming : Marc-Olivier Méhu
Technical & hardware support : Manuel Goepfert

Contact : metmap@orbifly.com




SOURCES & CREDITS :

   NOAA